4WN3 weather

Lakewood Airpark
Lakewood, Wisconsin, United States

Public forecast

Using degrees Fahrenheit for public forecast. Weather courtesy of forecast.io.

Closest aviation weather report (METAR) to Lakewood Airpark

Closest report is Langlade County Airport, 26.5 nm (49.2 km) WSW. Retrieved 2019/10/18 00:35 UTC (3 minutes ago):

KAIG 180035Z AUTO 00000KT 10SM CLR 04/02 A2999 RMK AO2 T00360019

Closest aviation forecast (TAF) to Lakewood Airpark

Closest forecast is Rhinelander Oneida County Airport, 43.1 nm (79.9 km) WNW. Retrieved 2019-10-18 00:42 UTC (0 seconds ago):

TAF KRHI 172340Z 1800/1824 VRB03KT P6SM SCT250 FM181500 16012G21KT P6SM BKN250 FM181800 15012G21KT P6SM SCT050 BKN150 FM182300 16008G16KT P6SM BKN150 WS010/18035KT